createdAt,value
2023-05-19T00:00:27.777Z,11.5473
2023-05-19T00:01:35.813Z,11.5139
2023-05-19T00:02:44.112Z,11.4908
2023-05-19T00:03:52.069Z,11.4565
2023-05-19T00:05:00.145Z,11.3394
2023-05-19T00:06:08.276Z,11.2942
2023-05-19T00:07:16.238Z,11.2906
2023-05-19T00:08:24.314Z,11.2463
2023-05-19T00:09:32.389Z,11.2701
2023-05-19T00:10:40.435Z,11.1689
2023-05-19T00:11:48.664Z,11.1574
2023-05-19T00:12:56.565Z,11.1256
2023-05-19T00:14:04.472Z,10.9230
2023-05-19T00:15:12.535Z,10.8967
2023-05-19T00:16:20.648Z,10.9861
2023-05-19T00:17:28.876Z,11.0933
2023-05-19T00:18:36.868Z,11.2021
2023-05-19T00:19:44.913Z,11.2946
2023-05-19T00:20:52.959Z,11.3016
2023-05-19T00:22:01.117Z,11.3325
2023-05-19T00:23:09.238Z,11.2478
2023-05-19T00:24:17.330Z,11.1513
2023-05-19T00:25:25.301Z,11.1540
2023-05-19T00:26:33.358Z,11.1809
2023-05-19T00:27:41.421Z,11.0081
2023-05-19T00:28:49.401Z,10.8833
2023-05-19T00:29:57.470Z,10.8889
2023-05-19T00:31:05.460Z,10.9682
2023-05-19T00:32:13.745Z,11.0998
2023-05-19T00:33:21.759Z,11.1723
2023-05-19T00:34:29.905Z,11.2358
2023-05-19T00:35:37.999Z,11.2457
2023-05-19T00:36:45.922Z,11.2265
2023-05-19T00:37:54.009Z,11.1404
2023-05-19T00:39:02.086Z,11.1456
2023-05-19T00:40:10.197Z,11.2110
2023-05-19T00:41:18.189Z,11.0865
2023-05-19T00:42:26.384Z,11.0025
2023-05-19T00:43:34.205Z,10.9655
2023-05-19T00:44:42.231Z,10.9835
2023-05-19T00:45:50.377Z,11.0371
2023-05-19T00:46:58.570Z,11.0600
2023-05-19T00:48:06.643Z,11.1235
2023-05-19T00:49:14.611Z,11.1197
2023-05-19T00:50:22.722Z,11.1691
2023-05-19T00:51:30.812Z,11.1004
2023-05-19T00:52:38.815Z,11.1380
2023-05-19T00:53:46.898Z,11.1853
2023-05-19T00:54:54.957Z,11.2041
2023-05-19T00:56:03.072Z,11.2030
2023-05-19T00:57:11.210Z,11.0365
2023-05-19T00:58:18.987Z,11.0432
2023-05-19T00:59:27.071Z,11.0849
2023-05-19T01:00:35.372Z,11.1206
2023-05-19T01:01:43.625Z,11.1605
2023-05-19T01:02:51.511Z,11.1668
2023-05-19T01:03:59.653Z,11.1954
2023-05-19T01:05:07.562Z,11.2072
2023-05-19T01:06:15.794Z,11.1984
2023-05-19T01:07:23.631Z,11.1893
2023-05-19T01:08:31.812Z,11.2001
2023-05-19T01:09:39.737Z,11.1830
2023-05-19T01:10:47.820Z,11.1591
2023-05-19T01:11:55.954Z,11.1729
2023-05-19T01:13:03.820Z,11.1671
2023-05-19T01:14:11.962Z,11.0775
2023-05-19T01:15:19.958Z,11.0081
2023-05-19T01:16:28.140Z,10.9776
2023-05-19T01:17:36.370Z,11.0083
2023-05-19T01:18:44.548Z,10.9623
2023-05-19T01:19:52.469Z,10.9484
2023-05-19T01:21:00.396Z,10.9320
2023-05-19T01:22:08.434Z,10.9058
2023-05-19T01:23:16.805Z,10.8555
2023-05-19T01:24:24.710Z,10.8648
2023-05-19T01:25:32.707Z,10.8913
2023-05-19T01:26:40.715Z,10.8263
2023-05-19T01:27:48.597Z,10.8486
2023-05-19T01:28:56.678Z,10.8829
2023-05-19T01:30:04.757Z,10.8582
2023-05-19T01:31:13.072Z,10.8095
2023-05-19T01:32:21.084Z,10.6993
2023-05-19T01:33:29.232Z,10.6327
2023-05-19T01:34:37.198Z,10.6728
2023-05-19T01:35:45.170Z,10.6979
2023-05-19T01:36:53.316Z,10.6358
2023-05-19T01:38:01.493Z,10.6651
2023-05-19T01:39:09.352Z,10.7382
2023-05-19T01:40:17.412Z,10.7302
2023-05-19T01:41:25.622Z,10.6428
2023-05-19T01:42:33.453Z,10.6691
2023-05-19T01:43:41.472Z,10.7199
2023-05-19T01:44:49.547Z,10.7111
2023-05-19T01:45:57.730Z,10.7193
2023-05-19T01:47:05.704Z,10.7363
2023-05-19T01:48:13.937Z,10.7899
2023-05-19T01:49:22.051Z,10.8425
2023-05-19T01:50:30.190Z,10.8211
2023-05-19T01:51:38.068Z,10.8143
2023-05-19T01:52:46.192Z,10.8473
2023-05-19T01:53:54.198Z,10.7971
2023-05-19T01:55:02.217Z,10.6670
2023-05-19T01:56:10.335Z,10.5383
2023-05-19T01:57:18.230Z,10.6378
2023-05-19T01:58:26.298Z,10.6800
2023-05-19T01:59:34.367Z,10.7422
2023-05-19T02:00:42.536Z,10.7908
2023-05-19T02:01:50.564Z,10.8244
2023-05-19T02:02:58.725Z,10.8452
2023-05-19T02:04:06.765Z,10.8534
2023-05-19T02:05:14.975Z,10.8486
2023-05-19T02:06:22.819Z,10.8244
2023-05-19T02:07:30.971Z,10.8314
2023-05-19T02:08:38.992Z,10.8465
2023-05-19T02:09:47.051Z,10.8713
2023-05-19T02:10:55.155Z,10.8528
2023-05-19T02:12:03.070Z,10.7784
2023-05-19T02:13:11.100Z,10.7614
2023-05-19T02:14:19.168Z,10.7441
2023-05-19T02:15:27.371Z,10.7771
2023-05-19T02:16:35.448Z,10.6890
2023-05-19T02:17:43.679Z,10.6296
2023-05-19T02:18:51.622Z,10.6600
2023-05-19T02:19:59.619Z,10.6024
2023-05-19T02:21:07.881Z,10.5966
2023-05-19T02:22:15.802Z,10.5745
2023-05-19T02:23:23.813Z,10.6003
2023-05-19T02:24:31.881Z,10.5764
2023-05-19T02:25:39.943Z,10.5123
2023-05-19T02:26:47.859Z,10.4669
2023-05-19T02:27:55.980Z,10.4790
2023-05-19T02:29:04.011Z,10.4845
2023-05-19T02:30:12.459Z,10.5286
2023-05-19T02:31:20.304Z,10.5644
2023-05-19T02:32:28.351Z,10.5553
2023-05-19T02:33:36.459Z,10.5410
2023-05-19T02:34:44.465Z,10.4732
2023-05-19T02:35:52.523Z,10.4010
2023-05-19T02:37:00.728Z,10.3754
2023-05-19T02:38:08.641Z,10.3466
2023-05-19T02:39:16.732Z,10.3668
2023-05-19T02:40:24.729Z,10.3084
2023-05-19T02:41:32.693Z,10.3248
2023-05-19T02:42:40.756Z,10.2735
2023-05-19T02:43:48.807Z,10.3247
2023-05-19T02:44:57.090Z,10.3996
2023-05-19T02:46:05.118Z,10.4616
2023-05-19T02:47:13.119Z,10.3447
2023-05-19T02:48:21.077Z,10.2827
2023-05-19T02:49:29.259Z,10.1717
2023-05-19T02:50:37.343Z,10.2171
2023-05-19T02:51:45.527Z,10.2484
2023-05-19T02:52:53.498Z,10.2383
2023-05-19T02:54:01.630Z,10.1908
2023-05-19T02:55:09.559Z,10.2001
2023-05-19T02:56:17.688Z,10.3269
2023-05-19T02:57:25.572Z,10.3277
2023-05-19T02:58:33.650Z,10.3014
2023-05-19T02:59:42.102Z,10.2495
2023-05-19T03:00:49.881Z,10.2058
2023-05-19T03:01:58.015Z,10.2386
2023-05-19T03:03:06.096Z,10.2468
2023-05-19T03:04:14.082Z,10.2180
2023-05-19T03:05:22.132Z,10.1759
2023-05-19T03:06:30.212Z,10.1505
2023-05-19T03:07:38.349Z,10.1929
2023-05-19T03:08:46.306Z,10.2898
2023-05-19T03:09:54.383Z,10.3201
2023-05-19T03:11:02.328Z,10.2413
2023-05-19T03:12:10.395Z,10.0662
2023-05-19T03:13:18.446Z,10.0191
2023-05-19T03:14:26.611Z,9.9459
2023-05-19T03:15:34.695Z,10.0056
2023-05-19T03:16:42.784Z,10.0849
2023-05-19T03:17:50.933Z,10.0794
2023-05-19T03:18:58.984Z,9.9943
2023-05-19T03:20:06.931Z,9.9590
2023-05-19T03:21:14.847Z,9.8286
2023-05-19T03:22:23.010Z,9.8169
2023-05-19T03:23:31.099Z,9.8276
2023-05-19T03:24:39.201Z,9.9108
2023-05-19T03:25:47.068Z,9.9008
2023-05-19T03:26:55.160Z,9.9792
2023-05-19T03:28:03.173Z,9.8947
2023-05-19T03:29:11.476Z,9.8614
2023-05-19T03:30:19.461Z,9.6933
2023-05-19T03:31:27.504Z,9.7591
2023-05-19T03:32:35.604Z,9.8617
2023-05-19T03:33:43.853Z,9.8165
2023-05-19T03:34:51.800Z,9.7944
2023-05-19T03:35:59.786Z,9.8001
2023-05-19T03:37:07.860Z,9.7437
2023-05-19T03:38:15.871Z,9.7259
2023-05-19T03:39:23.914Z,9.7662
2023-05-19T03:40:32.136Z,9.7568
2023-05-19T03:41:39.934Z,9.5400
2023-05-19T03:42:47.963Z,9.5003
2023-05-19T03:43:56.190Z,9.3889
2023-05-19T03:45:04.226Z,9.5787
2023-05-19T03:46:12.334Z,9.5915
2023-05-19T03:47:20.452Z,9.5701
2023-05-19T03:48:28.390Z,9.5857
2023-05-19T03:49:36.442Z,9.6714
2023-05-19T03:50:44.837Z,9.7133
2023-05-19T03:51:52.637Z,9.6193
2023-05-19T03:53:00.679Z,9.6229
2023-05-19T03:54:08.672Z,9.6887
2023-05-19T03:55:16.634Z,9.6138
2023-05-19T03:56:24.678Z,9.5026
2023-05-19T03:57:32.774Z,9.5966
2023-05-19T03:58:40.969Z,9.6111
2023-05-19T03:59:49.011Z,9.6832
2023-05-19T04:00:57.054Z,9.6849
2023-05-19T04:02:05.586Z,9.6880
2023-05-19T04:03:13.265Z,9.8276
2023-05-19T04:04:21.274Z,9.8909
2023-05-19T04:05:29.301Z,9.9371
2023-05-19T04:06:37.331Z,9.9960
2023-05-19T04:07:45.623Z,10.0675
2023-05-19T04:08:53.501Z,10.0777
2023-05-19T04:10:01.423Z,10.0784
2023-05-19T04:11:09.468Z,10.0466
2023-05-19T04:12:17.552Z,10.0481
2023-05-19T04:13:25.943Z,10.0918
2023-05-19T04:14:33.829Z,10.1536
2023-05-19T04:15:41.918Z,10.0960
2023-05-19T04:16:49.905Z,10.0052
2023-05-19T04:17:58.015Z,10.0796
2023-05-19T04:19:06.149Z,10.1168
2023-05-19T04:20:14.223Z,10.1086
2023-05-19T04:21:22.153Z,10.1116
2023-05-19T04:22:30.205Z,10.1793
2023-05-19T04:23:38.477Z,10.1604
2023-05-19T04:24:46.253Z,10.1719
2023-05-19T04:25:54.330Z,10.0162
2023-05-19T04:27:02.374Z,10.0416
2023-05-19T04:28:10.527Z,10.1105
2023-05-19T04:29:18.791Z,10.1168
2023-05-19T04:30:26.767Z,10.1316
2023-05-19T04:31:34.999Z,10.2180
2023-05-19T04:32:42.845Z,10.2575
2023-05-19T04:33:50.924Z,10.2836
2023-05-19T04:34:58.961Z,10.2346
2023-05-19T04:36:07.003Z,10.3224
2023-05-19T04:37:15.146Z,10.3758
2023-05-19T04:38:23.157Z,10.3758
2023-05-19T04:39:31.070Z,10.3779
2023-05-19T04:40:39.158Z,10.3435
2023-05-19T04:41:47.242Z,10.3227
2023-05-19T04:42:55.411Z,10.3786
2023-05-19T04:44:03.457Z,10.3914
2023-05-19T04:45:11.565Z,10.3983
2023-05-19T04:46:19.600Z,10.4692
2023-05-19T04:47:27.895Z,10.5179
2023-05-19T04:48:35.745Z,10.5591
2023-05-19T04:49:43.832Z,10.5642
2023-05-19T04:50:51.965Z,10.5675
2023-05-19T04:51:59.926Z,10.6518
2023-05-19T04:53:08.037Z,10.6308
2023-05-19T04:54:15.902Z,10.5993
2023-05-19T04:55:23.966Z,10.5835
2023-05-19T04:56:32.024Z,10.5680
2023-05-19T04:57:40.245Z,10.6333
2023-05-19T04:58:48.317Z,10.6628
2023-05-19T04:59:56.578Z,10.7231
2023-05-19T05:01:04.380Z,10.7420
2023-05-19T05:02:12.607Z,10.8192
2023-05-19T05:03:20.695Z,10.8704
2023-05-19T05:04:28.617Z,10.8986
2023-05-19T05:05:36.769Z,10.8726
2023-05-19T05:06:44.689Z,10.9369
2023-05-19T05:07:52.811Z,10.9621
2023-05-19T05:09:00.699Z,11.0472
2023-05-19T05:10:08.780Z,11.1477
2023-05-19T05:11:16.815Z,11.2423
2023-05-19T05:12:25.000Z,11.1849
2023-05-19T05:13:33.082Z,11.2410
2023-05-19T05:14:41.145Z,11.2011
2023-05-19T05:15:49.210Z,11.2144
2023-05-19T05:16:57.385Z,11.2869
2023-05-19T05:18:05.381Z,11.3335
2023-05-19T05:19:13.595Z,11.3020
2023-05-19T05:20:21.528Z,11.2431
2023-05-19T05:21:29.503Z,11.2637
2023-05-19T05:22:37.555Z,11.2490
2023-05-19T05:23:45.519Z,11.1578
2023-05-19T05:24:53.554Z,11.1582
2023-05-19T05:26:01.614Z,11.1773
2023-05-19T05:27:10.095Z,11.2820
2023-05-19T05:28:17.929Z,11.2492
2023-05-19T05:29:25.986Z,11.2261
2023-05-19T05:30:33.957Z,11.0737
2023-05-19T05:31:42.094Z,11.0451
2023-05-19T05:32:50.211Z,11.0163
2023-05-19T05:33:58.217Z,11.0092
2023-05-19T05:35:06.240Z,11.0382
2023-05-19T05:36:14.434Z,11.1401
2023-05-19T05:37:22.371Z,11.0985
2023-05-19T05:38:30.304Z,11.1944
2023-05-19T05:39:38.365Z,11.0685
2023-05-19T05:40:46.395Z,11.0313
2023-05-19T05:41:54.616Z,11.0443
2023-05-19T05:43:02.641Z,10.9259
2023-05-19T05:44:10.700Z,10.8513
2023-05-19T05:45:18.816Z,10.8635
2023-05-19T05:46:27.076Z,10.8124
2023-05-19T05:47:34.913Z,10.7784
2023-05-19T05:48:43.035Z,10.8284
2023-05-19T05:49:52.995Z,10.9068
2023-05-19T05:51:03.929Z,10.8992
2023-05-19T05:52:11.836Z,10.8263
2023-05-19T05:53:19.940Z,10.8175
2023-05-19T05:54:28.014Z,10.8273
2023-05-19T05:55:36.185Z,10.7164
2023-05-19T05:56:44.239Z,10.7439
2023-05-19T05:57:52.305Z,10.7750
2023-05-19T05:59:00.414Z,10.7880
2023-05-19T06:00:08.574Z,10.7050
2023-05-19T06:01:16.506Z,10.7012
2023-05-19T06:02:24.579Z,10.7695
2023-05-19T06:03:32.708Z,10.8667
2023-05-19T06:04:40.769Z,10.9280
2023-05-19T06:05:48.777Z,10.9619
2023-05-19T06:06:56.638Z,10.8576
2023-05-19T06:08:04.780Z,10.7922
2023-05-19T06:09:12.820Z,10.7113
2023-05-19T06:10:20.942Z,10.7878
2023-05-19T06:11:29.040Z,10.5965
2023-05-19T06:12:37.100Z,10.6747
2023-05-19T06:13:45.337Z,10.7470
2023-05-19T06:14:53.197Z,10.6287
2023-05-19T06:16:02.244Z,10.5268
2023-05-19T06:17:09.329Z,10.5081
2023-05-19T06:18:17.448Z,10.3035
2023-05-19T06:19:25.640Z,10.3056
2023-05-19T06:20:33.567Z,10.3397
2023-05-19T06:21:41.415Z,10.3926
2023-05-19T06:22:49.511Z,10.4004
2023-05-19T06:23:57.730Z,10.4320
2023-05-19T06:25:05.921Z,10.3306
2023-05-19T06:26:13.803Z,10.4376
2023-05-19T06:27:21.831Z,10.4761
2023-05-19T06:28:29.967Z,10.5024
2023-05-19T06:29:38.079Z,10.5112
2023-05-19T06:30:46.052Z,10.4868
2023-05-19T06:31:54.250Z,10.5980
2023-05-19T06:33:02.177Z,10.7231
2023-05-19T06:34:10.251Z,10.7784
2023-05-19T06:35:18.193Z,10.8213
2023-05-19T06:36:26.225Z,10.8408
2023-05-19T06:37:34.301Z,10.7681
2023-05-19T06:38:42.467Z,10.5846
2023-05-19T06:39:50.505Z,10.4502
2023-05-19T06:40:58.830Z,10.1627
2023-05-19T06:42:06.671Z,10.2196
2023-05-19T06:43:14.705Z,10.1555
2023-05-19T06:44:22.752Z,10.1972
2023-05-19T06:45:30.790Z,10.2873
2023-05-19T06:46:39.204Z,10.3731
2023-05-19T06:47:46.982Z,10.4353
2023-05-19T06:48:55.170Z,10.3777
2023-05-19T06:50:02.969Z,10.4067
2023-05-19T06:51:11.027Z,10.4618
2023-05-19T06:52:19.104Z,10.5812
2023-05-19T06:53:27.276Z,10.7132
2023-05-19T06:54:35.344Z,10.6476
2023-05-19T06:55:57.540Z,10.7111
2023-05-19T06:56:56.528Z,10.6576
2023-05-19T06:58:04.394Z,10.5942
2023-05-19T06:59:12.448Z,10.6832
2023-05-19T07:00:22.894Z,10.7204
2023-05-19T07:01:33.643Z,10.7956
2023-05-19T07:02:41.660Z,10.7489
2023-05-19T07:03:49.488Z,10.6216
2023-05-19T07:04:57.486Z,10.4393
2023-05-19T07:06:07.931Z,10.3714
2023-05-19T07:07:18.544Z,10.4550
2023-05-19T07:08:26.679Z,10.5623
2023-05-19T07:09:34.932Z,10.6178
2023-05-19T07:10:42.819Z,10.6869
2023-05-19T07:11:50.851Z,10.5452
2023-05-19T07:12:59.040Z,10.7981
2023-05-19T07:14:06.900Z,10.9402
2023-05-19T07:15:14.927Z,11.0262
2023-05-19T07:16:23.037Z,11.1347
2023-05-19T07:17:31.040Z,11.1980
2023-05-19T07:18:39.145Z,11.3470
2023-05-19T07:19:47.221Z,11.4117
2023-05-19T07:20:55.214Z,11.3230
2023-05-19T07:22:03.470Z,11.3897
2023-05-19T07:23:11.477Z,11.3928
2023-05-19T07:24:19.469Z,11.4941
2023-05-19T07:25:27.552Z,11.5803
2023-05-19T07:26:35.642Z,11.6198
2023-05-19T07:27:43.768Z,11.5620
2023-05-19T07:28:51.712Z,11.6104
2023-05-19T07:29:59.812Z,11.8546
2023-05-19T07:31:07.753Z,11.9658
2023-05-19T07:32:15.876Z,11.9631
2023-05-19T07:33:23.925Z,12.0083
2023-05-19T07:34:32.074Z,12.0588
2023-05-19T07:35:40.147Z,12.1256
2023-05-19T07:36:48.182Z,12.0033
2023-05-19T07:37:56.352Z,12.0167
2023-05-19T07:39:04.344Z,11.8296
2023-05-19T07:40:12.372Z,11.6167
2023-05-19T07:41:20.387Z,11.6245
2023-05-19T07:42:28.545Z,11.8303
2023-05-19T07:43:36.598Z,12.0054
2023-05-19T07:44:44.809Z,12.1626
2023-05-19T07:45:52.776Z,12.2435
2023-05-19T07:47:00.687Z,12.2107
2023-05-19T07:48:08.987Z,12.2547
2023-05-19T07:49:16.726Z,12.1836
2023-05-19T07:50:24.792Z,12.2570
2023-05-19T07:51:32.868Z,12.5023
2023-05-19T07:52:41.151Z,12.6055
2023-05-19T07:53:49.154Z,12.8380
2023-05-19T07:54:57.144Z,13.0368
2023-05-19T07:56:05.391Z,13.0478
2023-05-19T07:57:13.376Z,13.0358
2023-05-19T07:58:21.337Z,13.2941
2023-05-19T07:59:29.386Z,13.5397
2023-05-19T08:00:37.540Z,13.3505
2023-05-19T08:01:45.519Z,13.2468
2023-05-19T08:02:53.674Z,13.2780
2023-05-19T08:04:01.580Z,13.2893
2023-05-19T08:05:09.573Z,13.1968
2023-05-19T08:06:17.674Z,13.1047
2023-05-19T08:07:26.023Z,13.1115
2023-05-19T08:08:34.084Z,13.1260
2023-05-19T08:09:41.946Z,13.2010
2023-05-19T08:10:50.058Z,13.1567
2023-05-19T08:11:58.193Z,12.9490
2023-05-19T08:13:06.102Z,12.8254
2023-05-19T08:14:14.173Z,12.7648
2023-05-19T08:15:22.308Z,12.5262
2023-05-19T08:16:30.635Z,12.4056
2023-05-19T08:17:38.319Z,12.4722
2023-05-19T08:18:46.387Z,12.5754
2023-05-19T08:19:54.332Z,12.5574
2023-05-19T08:21:02.541Z,12.5716
2023-05-19T08:22:10.615Z,12.5685
2023-05-19T08:23:18.685Z,12.6286
2023-05-19T08:24:26.792Z,12.6478
2023-05-19T08:25:34.812Z,12.4317
2023-05-19T08:26:42.879Z,12.4441
2023-05-19T08:27:51.089Z,12.4163
2023-05-19T08:28:59.029Z,12.4516
2023-05-19T08:30:07.024Z,12.4953
2023-05-19T08:31:15.247Z,12.5122
2023-05-19T08:32:23.099Z,12.5592
2023-05-19T08:33:31.083Z,12.5994
2023-05-19T08:34:39.139Z,12.6387
2023-05-19T08:35:47.489Z,12.6583
2023-05-19T08:36:55.546Z,12.6868
2023-05-19T08:38:03.453Z,12.7220
2023-05-19T08:39:11.591Z,12.5231
2023-05-19T08:40:19.656Z,12.5803
2023-05-19T08:41:27.820Z,12.3636
2023-05-19T08:42:35.767Z,12.4066
2023-05-19T08:43:43.831Z,12.1977
2023-05-19T08:44:52.187Z,12.1647
2023-05-19T08:45:59.896Z,12.1264
2023-05-19T08:47:08.021Z,12.2008
2023-05-19T08:48:16.003Z,12.2942
2023-05-19T08:49:25.570Z,12.3282
2023-05-19T08:50:32.506Z,12.6192
2023-05-19T08:51:40.155Z,12.7444
2023-05-19T08:52:51.796Z,12.8567
2023-05-19T08:54:01.288Z,13.0851
2023-05-19T08:55:09.340Z,13.1232
2023-05-19T08:56:17.331Z,13.2826
2023-05-19T08:57:25.475Z,13.4568
2023-05-19T08:58:33.515Z,13.7436
2023-05-19T08:59:41.402Z,13.9796
2023-05-19T09:00:49.517Z,14.0994
2023-05-19T09:01:57.578Z,14.0028
2023-05-19T09:04:13.911Z,13.7896
2023-05-19T09:05:21.914Z,13.9136
2023-05-19T09:06:29.921Z,13.8278
2023-05-19T09:07:38.072Z,13.8133
2023-05-19T09:08:45.998Z,13.8108
2023-05-19T09:09:54.349Z,13.7154
2023-05-19T09:11:02.171Z,13.7221
2023-05-19T09:12:10.291Z,13.6496
2023-05-19T09:13:18.255Z,13.7469
2023-05-19T09:14:26.216Z,13.7883
2023-05-19T09:15:34.602Z,13.8140
2023-05-19T09:16:42.389Z,13.8234
2023-05-19T09:17:50.640Z,13.5306
2023-05-19T09:18:58.621Z,13.1752
2023-05-19T09:20:06.680Z,13.2933
2023-05-19T09:21:14.716Z,13.2138
2023-05-19T09:22:22.836Z,13.0209
2023-05-19T09:23:30.819Z,13.0110
2023-05-19T09:24:38.863Z,13.1163
2023-05-19T09:25:46.981Z,13.1634
2023-05-19T09:26:55.756Z,13.1262
2023-05-19T09:28:07.868Z,13.0842
2023-05-19T09:29:15.853Z,13.0053
2023-05-19T09:30:23.885Z,12.9132
2023-05-19T09:31:32.161Z,12.9395
2023-05-19T09:32:40.165Z,12.9698
2023-05-19T09:33:48.281Z,12.9746
2023-05-19T09:34:56.529Z,13.1001
2023-05-19T09:36:04.320Z,12.8969
2023-05-19T09:37:12.370Z,12.8323
2023-05-19T09:38:20.564Z,12.9574
2023-05-19T09:39:28.553Z,13.1104
2023-05-19T09:40:36.607Z,13.3326
2023-05-19T09:41:44.667Z,13.5390
2023-05-19T09:42:52.572Z,13.6174
2023-05-19T09:44:00.678Z,13.6870
2023-05-19T09:45:08.678Z,13.9065
2023-05-19T09:46:16.885Z,13.9033
2023-05-19T09:47:24.903Z,13.9441
2023-05-19T09:48:32.991Z,14.2031
2023-05-19T09:49:41.279Z,14.3433
2023-05-19T09:50:49.260Z,14.4322
2023-05-19T09:51:57.195Z,14.4719
2023-05-19T09:53:05.261Z,14.2828
2023-05-19T09:54:13.385Z,14.3446
2023-05-19T09:55:21.358Z,14.4623
2023-05-19T09:56:29.442Z,14.4597
2023-05-19T09:57:37.358Z,14.4703
2023-05-19T09:58:45.414Z,14.6641
2023-05-19T09:59:53.487Z,14.5756
2023-05-19T10:01:01.631Z,14.5670
2023-05-19T10:02:09.760Z,14.2931
2023-05-19T10:03:17.828Z,14.0780
2023-05-19T10:04:25.922Z,14.1356
2023-05-19T10:05:34.320Z,14.1818
2023-05-19T10:06:42.296Z,14.3584
2023-05-19T10:07:50.044Z,14.5205
2023-05-19T10:08:58.157Z,14.6844
2023-05-19T10:10:06.175Z,14.7820
2023-05-19T10:11:14.209Z,14.9365
2023-05-19T10:12:22.159Z,15.1850
2023-05-19T10:13:30.232Z,15.2543
2023-05-19T10:14:38.275Z,15.0881
2023-05-19T10:15:57.327Z,15.1652
2023-05-19T10:16:59.481Z,15.1610
2023-05-19T10:18:07.545Z,15.0611
2023-05-19T10:19:15.548Z,15.0801
2023-05-19T10:20:23.573Z,14.9056
2023-05-19T10:21:31.667Z,14.8282
2023-05-19T10:22:39.753Z,14.8821
2023-05-19T10:23:47.895Z,15.0303
2023-05-19T10:24:55.820Z,15.1551
2023-05-19T10:26:03.754Z,15.2104
2023-05-19T10:27:11.834Z,15.1972
2023-05-19T10:28:19.921Z,15.1765
2023-05-19T10:29:28.129Z,15.2224
2023-05-19T10:30:36.110Z,15.1326
2023-05-19T10:31:44.338Z,14.9390
2023-05-19T10:32:52.308Z,14.9457
2023-05-19T10:34:00.398Z,14.9256
2023-05-19T10:35:08.460Z,15.1494
2023-05-19T10:36:16.535Z,15.1610
2023-05-19T10:37:24.538Z,15.2169
2023-05-19T10:38:32.543Z,15.1847
2023-05-19T10:39:40.657Z,15.2198
2023-05-19T10:40:48.543Z,15.2295
2023-05-19T10:41:56.629Z,15.1734
2023-05-19T10:43:04.672Z,15.2339
2023-05-19T10:44:12.916Z,15.1082
2023-05-19T10:45:21.127Z,15.0595
2023-05-19T10:46:28.959Z,14.9642
2023-05-19T10:47:37.046Z,15.0056
2023-05-19T10:48:45.125Z,15.0601
2023-05-19T10:49:53.344Z,15.1093
2023-05-19T10:51:01.272Z,15.2180
2023-05-19T10:52:09.369Z,15.3386
2023-05-19T10:53:17.349Z,15.4349
2023-05-19T10:54:25.689Z,15.3802
2023-05-19T10:55:33.525Z,15.3903
2023-05-19T10:56:41.443Z,15.5003
2023-05-19T10:57:49.510Z,15.6323
2023-05-19T10:58:57.644Z,15.7460
2023-05-19T11:00:05.692Z,15.7548
2023-05-19T11:01:13.837Z,15.5478
2023-05-19T11:02:21.807Z,15.7429
2023-05-19T11:04:37.913Z,16.0859
2023-05-19T11:05:46.011Z,15.9735
2023-05-19T11:06:54.117Z,15.9804
2023-05-19T11:08:02.201Z,15.8402
2023-05-19T11:09:10.160Z,15.9058
2023-05-19T11:10:18.133Z,16.1294
2023-05-19T11:11:26.202Z,16.2694
2023-05-19T11:12:34.210Z,16.2207
2023-05-19T11:13:42.405Z,16.2417
2023-05-19T11:14:50.451Z,16.0615
2023-05-19T11:15:58.562Z,16.1044
2023-05-19T11:17:06.728Z,16.2555
2023-05-19T11:18:14.703Z,16.2934
2023-05-19T11:19:22.886Z,16.0739
2023-05-19T11:20:30.794Z,16.2244
2023-05-19T11:21:38.962Z,16.4756
2023-05-19T11:22:46.892Z,16.4624
2023-05-19T11:23:55.121Z,16.6091
2023-05-19T11:25:02.865Z,16.5852
2023-05-19T11:26:10.961Z,16.2936
2023-05-19T11:27:19.109Z,16.0424
2023-05-19T11:28:27.277Z,15.8397
2023-05-19T11:29:35.245Z,15.6644
2023-05-19T11:30:43.347Z,15.5308
2023-05-19T11:31:51.555Z,15.2894
2023-05-19T11:32:59.442Z,15.4078
2023-05-19T11:34:07.503Z,15.5043
2023-05-19T11:35:15.668Z,15.5890
2023-05-19T11:36:23.630Z,15.5879
2023-05-19T11:37:31.675Z,15.7136
2023-05-19T11:38:39.690Z,15.6525
2023-05-19T11:39:47.689Z,15.6701
2023-05-19T11:40:55.749Z,15.8530
2023-05-19T11:42:03.824Z,15.9537
2023-05-19T11:43:11.915Z,16.0472
2023-05-19T11:44:20.007Z,16.3991
2023-05-19T11:45:28.079Z,16.7224
2023-05-19T11:46:36.472Z,16.8302
2023-05-19T11:48:00.827Z,17.3429
2023-05-19T11:48:57.393Z,17.7020
2023-05-19T11:50:05.215Z,17.9446
2023-05-19T11:51:13.335Z,18.1258
2023-05-19T11:52:21.383Z,18.5065
2023-05-19T11:53:29.246Z,18.6319
2023-05-19T11:54:37.332Z,18.9237
2023-05-19T11:55:45.803Z,19.0666
2023-05-19T11:56:53.713Z,19.2308
2023-05-19T11:58:04.649Z,19.5140
2023-05-19T11:59:14.546Z,19.6426
2023-05-19T12:00:22.573Z,19.8284
2023-05-19T12:01:30.637Z,19.8942
2023-05-19T12:02:38.864Z,20.2096
2023-05-19T12:03:46.922Z,20.5633
2023-05-19T12:04:54.963Z,20.4961
2023-05-19T12:06:02.961Z,20.3447
2023-05-19T12:07:10.847Z,20.2896
2023-05-19T12:08:18.997Z,20.2728
2023-05-19T12:09:27.030Z,20.1564
2023-05-19T12:10:35.133Z,19.8898
2023-05-19T12:11:43.207Z,19.8934
2023-05-19T12:12:51.226Z,19.6840
2023-05-19T12:13:59.325Z,19.5943
2023-05-19T12:15:07.347Z,19.3893
2023-05-19T12:16:15.522Z,19.3412
2023-05-19T12:17:23.602Z,19.5052
2023-05-19T12:18:31.520Z,19.6035
2023-05-19T12:19:39.593Z,19.5283
2023-05-19T12:20:47.776Z,19.5293
2023-05-19T12:21:55.675Z,19.6285
2023-05-19T12:23:03.850Z,19.8572
2023-05-19T12:24:11.812Z,20.2087
2023-05-19T12:25:19.857Z,20.1574
2023-05-19T12:26:28.049Z,20.2236
2023-05-19T12:27:35.971Z,20.2432
2023-05-19T12:28:44.156Z,20.3029
2023-05-19T12:29:52.170Z,20.5436
2023-05-19T12:31:00.332Z,20.8341
2023-05-19T12:32:08.425Z,21.0359
2023-05-19T12:33:16.468Z,21.0762
2023-05-19T12:34:24.417Z,21.3527
2023-05-19T12:35:32.488Z,21.2885
2023-05-19T12:36:40.494Z,21.3361
2023-05-19T12:37:48.524Z,21.5067
2023-05-19T12:38:56.560Z,21.2968
2023-05-19T12:40:04.845Z,21.0609
2023-05-19T12:41:13.023Z,20.7616
2023-05-19T12:42:20.831Z,20.5946
2023-05-19T12:43:28.962Z,20.2810
2023-05-19T12:44:36.963Z,19.9245
2023-05-19T12:45:45.129Z,19.5480
2023-05-19T12:46:53.235Z,19.4890
2023-05-19T12:48:01.372Z,19.3212
2023-05-19T12:49:09.313Z,18.9962
2023-05-19T12:50:17.390Z,18.7551
2023-05-19T12:51:25.367Z,18.4421
2023-05-19T12:52:33.385Z,18.2708
2023-05-19T12:53:41.436Z,18.1749
2023-05-19T12:54:49.629Z,18.1197
2023-05-19T12:55:57.746Z,18.0980
2023-05-19T12:57:05.913Z,17.7634
2023-05-19T12:58:13.874Z,17.1969
2023-05-19T12:59:37.093Z,17.1893
2023-05-19T13:00:34.987Z,17.2464
2023-05-19T13:01:42.912Z,17.2122
2023-05-19T13:02:51.110Z,16.9915
2023-05-19T13:03:59.206Z,16.9299
2023-05-19T13:05:06.920Z,17.1372
2023-05-19T13:06:14.991Z,17.3902
2023-05-19T13:07:23.042Z,17.5315
2023-05-19T13:08:31.469Z,17.4924
2023-05-19T13:09:39.274Z,17.6803
2023-05-19T13:10:47.589Z,17.9626
2023-05-19T13:11:55.450Z,18.1525
2023-05-19T13:13:03.552Z,18.2811
2023-05-19T13:14:11.515Z,18.2761
2023-05-19T13:15:19.595Z,18.2563
2023-05-19T13:16:27.671Z,18.1632
2023-05-19T13:17:35.768Z,17.8825
2023-05-19T13:18:43.816Z,17.6808
2023-05-19T13:19:51.824Z,17.2387
2023-05-19T13:20:59.819Z,17.0825
2023-05-19T13:22:07.951Z,16.6512
2023-05-19T13:23:16.212Z,16.6783
2023-05-19T13:24:24.336Z,16.4092
2023-05-19T13:25:32.220Z,16.3491
2023-05-19T13:26:40.265Z,16.1645
2023-05-19T13:27:48.334Z,16.1904
2023-05-19T13:28:56.361Z,16.3049
2023-05-19T13:30:04.451Z,16.3531
2023-05-19T13:31:12.533Z,16.4513
2023-05-19T13:32:20.639Z,16.4443
2023-05-19T13:33:28.504Z,16.3941
2023-05-19T13:34:36.539Z,16.5013
2023-05-19T13:35:44.636Z,16.4986
2023-05-19T13:36:52.709Z,16.4193
2023-05-19T13:38:00.897Z,16.3413
2023-05-19T13:39:09.077Z,16.1792
2023-05-19T13:40:17.042Z,16.2923
2023-05-19T13:41:25.044Z,16.3392
2023-05-19T13:42:33.148Z,16.0935
2023-05-19T13:43:41.211Z,15.9034
2023-05-19T13:44:49.237Z,16.0332
2023-05-19T13:45:57.454Z,16.0518
2023-05-19T13:47:05.347Z,16.0668
2023-05-19T13:48:13.540Z,16.0685